sensor_id;sensor_type;location;lat;lon;timestamp;temperature;humidity
9802;DHT22;4940;50.900;4.672;2023-08-30T00:06:08;14.30;99.90
9802;DHT22;4940;50.900;4.672;2023-08-30T00:11:04;14.30;99.90
9802;DHT22;4940;50.900;4.672;2023-08-30T00:13:32;14.30;99.90
9802;DHT22;4940;50.900;4.672;2023-08-30T00:18:28;14.20;99.90
9802;DHT22;4940;50.900;4.672;2023-08-30T00:20:55;14.20;99.90
9802;DHT22;4940;50.900;4.672;2023-08-30T00:23:24;14.20;99.90
9802;DHT22;4940;50.900;4.672;2023-08-30T00:28:20;14.20;99.90
9802;DHT22;4940;50.900;4.672;2023-08-30T00:30:53;14.20;99.90
9802;DHT22;4940;50.900;4.672;2023-08-30T00:33:20;14.20;99.90
9802;DHT22;4940;50.900;4.672;2023-08-30T00:35:55;14.20;99.90
9802;DHT22;4940;50.900;4.672;2023-08-30T00:38:23;14.30;99.90
9802;DHT22;4940;50.900;4.672;2023-08-30T00:40:50;14.30;99.90
9802;DHT22;4940;50.900;4.672;2023-08-30T00:45:47;14.30;99.90
9802;DHT22;4940;50.900;4.672;2023-08-30T00:48:15;14.30;99.90
9802;DHT22;4940;50.900;4.672;2023-08-30T00:53:12;14.30;99.90
9802;DHT22;4940;50.900;4.672;2023-08-30T00:55:41;14.30;99.90
9802;DHT22;4940;50.900;4.672;2023-08-30T00:58:10;14.20;99.90
9802;DHT22;4940;50.900;4.672;2023-08-30T01:00:38;14.30;99.90
9802;DHT22;4940;50.900;4.672;2023-08-30T01:03:07;14.30;99.90
9802;DHT22;4940;50.900;4.672;2023-08-30T01:05:34;14.20;99.90
9802;DHT22;4940;50.900;4.672;2023-08-30T01:08:02;14.20;99.90
9802;DHT22;4940;50.900;4.672;2023-08-30T01:13:19;14.20;99.90
9802;DHT22;4940;50.900;4.672;2023-08-30T01:15:47;14.10;99.90
9802;DHT22;4940;50.900;4.672;2023-08-30T01:18:18;14.00;99.90
9802;DHT22;4940;50.900;4.672;2023-08-30T01:20:48;14.00;99.90
9802;DHT22;4940;50.900;4.672;2023-08-30T01:23:23;14.00;99.90
9802;DHT22;4940;50.900;4.672;2023-08-30T01:25:57;13.90;99.90
9802;DHT22;4940;50.900;4.672;2023-08-30T01:28:31;14.00;99.90
9802;DHT22;4940;50.900;4.672;2023-08-30T01:31:00;13.80;99.90
9802;DHT22;4940;50.900;4.672;2023-08-30T01:33:28;13.80;99.90
9802;DHT22;4940;50.900;4.672;2023-08-30T01:35:58;13.80;99.90
9802;DHT22;4940;50.900;4.672;2023-08-30T01:38:27;13.70;99.90
9802;DHT22;4940;50.900;4.672;2023-08-30T01:40:56;13.90;99.90
9802;DHT22;4940;50.900;4.672;2023-08-30T01:43:25;13.50;99.90
9802;DHT22;4940;50.900;4.672;2023-08-30T01:45:56;13.60;99.90
9802;DHT22;4940;50.900;4.672;2023-08-30T01:48:24;13.60;99.90
9802;DHT22;4940;50.900;4.672;2023-08-30T01:50:53;13.60;99.90
9802;DHT22;4940;50.900;4.672;2023-08-30T01:53:25;13.70;99.90
9802;DHT22;4940;50.900;4.672;2023-08-30T01:58:20;13.70;99.90
9802;DHT22;4940;50.900;4.672;2023-08-30T02:03:16;13.80;99.90
9802;DHT22;4940;50.900;4.672;2023-08-30T02:05:56;13.80;99.90
9802;DHT22;4940;50.900;4.672;2023-08-30T02:08:26;13.80;99.90
9802;DHT22;4940;50.900;4.672;2023-08-30T02:11:01;13.80;99.90
9802;DHT22;4940;50.900;4.672;2023-08-30T02:13:31;13.80;99.90
9802;DHT22;4940;50.900;4.672;2023-08-30T02:16:00;13.90;99.90
9802;DHT22;4940;50.900;4.672;2023-08-30T02:18:29;13.80;99.90
9802;DHT22;4940;50.900;4.672;2023-08-30T02:20:57;13.90;99.90
9802;DHT22;4940;50.900;4.672;2023-08-30T02:25:54;13.80;99.90
9802;DHT22;4940;50.900;4.672;2023-08-30T02:28:22;13.90;99.90
9802;DHT22;4940;50.900;4.672;2023-08-30T02:30:52;13.90;99.90
9802;DHT22;4940;50.900;4.672;2023-08-30T02:35:48;13.90;99.90
9802;DHT22;4940;50.900;4.672;2023-08-30T02:38:15;14.00;99.90
9802;DHT22;4940;50.900;4.672;2023-08-30T02:48:06;14.00;99.90
9802;DHT22;4940;50.900;4.672;2023-08-30T02:53:02;14.00;99.90
9802;DHT22;4940;50.900;4.672;2023-08-30T02:55:30;14.00;99.90
9802;DHT22;4940;50.900;4.672;2023-08-30T02:57:58;14.10;99.90
9802;DHT22;4940;50.900;4.672;2023-08-30T03:10:16;14.20;99.90
9802;DHT22;4940;50.900;4.672;2023-08-30T03:15:11;14.10;99.90
9802;DHT22;4940;50.900;4.672;2023-08-30T03:20:07;14.10;99.90
9802;DHT22;4940;50.900;4.672;2023-08-30T03:22:34;14.10;99.90
9802;DHT22;4940;50.900;4.672;2023-08-30T03:25:02;14.10;99.90
9802;DHT22;4940;50.900;4.672;2023-08-30T03:27:32;13.90;99.90
9802;DHT22;4940;50.900;4.672;2023-08-30T03:29:59;14.20;99.90
9802;DHT22;4940;50.900;4.672;2023-08-30T03:32:27;14.20;99.90
9802;DHT22;4940;50.900;4.672;2023-08-30T03:37:21;14.10;99.90
9802;DHT22;4940;50.900;4.672;2023-08-30T03:44:45;14.10;99.90
9802;DHT22;4940;50.900;4.672;2023-08-30T03:47:12;14.10;99.90
9802;DHT22;4940;50.900;4.672;2023-08-30T03:57:02;14.10;99.90
9802;DHT22;4940;50.900;4.672;2023-08-30T03:59:30;14.10;99.90
9802;DHT22;4940;50.900;4.672;2023-08-30T04:01:59;14.20;99.90
9802;DHT22;4940;50.900;4.672;2023-08-30T04:04:26;14.20;99.90
9802;DHT22;4940;50.900;4.672;2023-08-30T04:11:48;14.20;99.90
9802;DHT22;4940;50.900;4.672;2023-08-30T04:14:16;14.20;99.90
9802;DHT22;4940;50.900;4.672;2023-08-30T04:19:11;14.00;99.90
9802;DHT22;4940;50.900;4.672;2023-08-30T04:21:39;14.20;99.90
9802;DHT22;4940;50.900;4.672;2023-08-30T04:24:06;14.20;99.90
9802;DHT22;4940;50.900;4.672;2023-08-30T04:26:34;14.20;99.90
9802;DHT22;4940;50.900;4.672;2023-08-30T04:29:01;14.10;99.90
9802;DHT22;4940;50.900;4.672;2023-08-30T04:31:29;14.00;99.90
9802;DHT22;4940;50.900;4.672;2023-08-30T04:33:56;14.20;99.90
9802;DHT22;4940;50.900;4.672;2023-08-30T04:36:25;14.20;99.90
9802;DHT22;4940;50.900;4.672;2023-08-30T04:41:20;14.10;99.90
9802;DHT22;4940;50.900;4.672;2023-08-30T04:43:47;14.20;99.90
9802;DHT22;4940;50.900;4.672;2023-08-30T04:48:42;14.20;99.90
9802;DHT22;4940;50.900;4.672;2023-08-30T04:51:09;14.30;99.90
9802;DHT22;4940;50.900;4.672;2023-08-30T04:53:37;15.20;99.90
9802;DHT22;4940;50.900;4.672;2023-08-30T04:56:11;14.30;99.90
9802;DHT22;4940;50.900;4.672;2023-08-30T04:58:39;14.30;99.90
9802;DHT22;4940;50.900;4.672;2023-08-30T05:01:06;14.30;99.90
9802;DHT22;4940;50.900;4.672;2023-08-30T05:10:58;14.40;99.90
9802;DHT22;4940;50.900;4.672;2023-08-30T05:13:25;14.40;99.90
9802;DHT22;4940;50.900;4.672;2023-08-30T05:15:52;14.40;99.90
9802;DHT22;4940;50.900;4.672;2023-08-30T05:20:47;14.40;99.90
9802;DHT22;4940;50.900;4.672;2023-08-30T05:23:15;12.10;99.90
9802;DHT22;4940;50.900;4.672;2023-08-30T05:25:42;14.50;99.90
9802;DHT22;4940;50.900;4.672;2023-08-30T05:28:11;14.50;99.90
9802;DHT22;4940;50.900;4.672;2023-08-30T05:30:41;14.50;99.90
9802;DHT22;4940;50.900;4.672;2023-08-30T05:33:08;14.50;99.90
9802;DHT22;4940;50.900;4.672;2023-08-30T05:40:31;14.70;99.90
9802;DHT22;4940;50.900;4.672;2023-08-30T05:45:26;14.60;99.90
9802;DHT22;4940;50.900;4.672;2023-08-30T05:50:21;14.70;99.90
9802;DHT22;4940;50.900;4.672;2023-08-30T05:52:49;15.20;99.90
9802;DHT22;4940;50.900;4.672;2023-08-30T06:00:13;14.70;99.90
9802;DHT22;4940;50.900;4.672;2023-08-30T06:02:42;14.80;99.90
9802;DHT22;4940;50.900;4.672;2023-08-30T06:05:09;14.80;99.90
9802;DHT22;4940;50.900;4.672;2023-08-30T06:07:37;14.80;99.90
9802;DHT22;4940;50.900;4.672;2023-08-30T06:10:04;14.80;99.90
9802;DHT22;4940;50.900;4.672;2023-08-30T06:19:55;14.80;99.90
9802;DHT22;4940;50.900;4.672;2023-08-30T06:24:50;14.80;99.90
9802;DHT22;4940;50.900;4.672;2023-08-30T06:29:46;14.70;99.90
9802;DHT22;4940;50.900;4.672;2023-08-30T06:37:09;14.70;99.90
9802;DHT22;4940;50.900;4.672;2023-08-30T06:39:37;14.70;99.90
9802;DHT22;4940;50.900;4.672;2023-08-30T06:42:05;14.80;99.90
9802;DHT22;4940;50.900;4.672;2023-08-30T06:47:00;14.90;99.90
9802;DHT22;4940;50.900;4.672;2023-08-30T06:49:28;14.90;99.90
9802;DHT22;4940;50.900;4.672;2023-08-30T06:54:26;15.00;99.90
9802;DHT22;4940;50.900;4.672;2023-08-30T06:56:57;14.90;99.90
9802;DHT22;4940;50.900;4.672;2023-08-30T06:59:25;15.00;99.90
9802;DHT22;4940;50.900;4.672;2023-08-30T07:01:53;14.90;99.90
9802;DHT22;4940;50.900;4.672;2023-08-30T07:04:20;15.00;99.90
9802;DHT22;4940;50.900;4.672;2023-08-30T07:11:44;14.90;99.90
9802;DHT22;4940;50.900;4.672;2023-08-30T07:16:40;14.90;99.90
9802;DHT22;4940;50.900;4.672;2023-08-30T07:19:08;14.80;99.90
9802;DHT22;4940;50.900;4.672;2023-08-30T07:21:36;14.90;99.90
9802;DHT22;4940;50.900;4.672;2023-08-30T07:24:05;14.90;99.90
9802;DHT22;4940;50.900;4.672;2023-08-30T07:26:33;14.90;99.90
9802;DHT22;4940;50.900;4.672;2023-08-30T07:29:02;14.80;99.90
9802;DHT22;4940;50.900;4.672;2023-08-30T07:31:31;14.80;99.90
9802;DHT22;4940;50.900;4.672;2023-08-30T07:36:25;14.90;99.90
9802;DHT22;4940;50.900;4.672;2023-08-30T07:46:17;14.90;99.90
9802;DHT22;4940;50.900;4.672;2023-08-30T07:48:44;14.90;99.90
9802;DHT22;4940;50.900;4.672;2023-08-30T07:56:07;14.90;99.90
9802;DHT22;4940;50.900;4.672;2023-08-30T07:58:34;14.90;99.90
9802;DHT22;4940;50.900;4.672;2023-08-30T08:03:31;14.90;99.90
9802;DHT22;4940;50.900;4.672;2023-08-30T08:05:59;15.00;99.90
9802;DHT22;4940;50.900;4.672;2023-08-30T08:08:26;15.10;99.90
9802;DHT22;4940;50.900;4.672;2023-08-30T08:13:21;15.00;99.90
9802;DHT22;4940;50.900;4.672;2023-08-30T08:18:17;15.10;99.90
9802;DHT22;4940;50.900;4.672;2023-08-30T08:20:46;15.10;99.90
9802;DHT22;4940;50.900;4.672;2023-08-30T08:25:41;15.10;99.90
9802;DHT22;4940;50.900;4.672;2023-08-30T08:28:08;15.10;99.90
9802;DHT22;4940;50.900;4.672;2023-08-30T08:30:36;15.20;99.90
9802;DHT22;4940;50.900;4.672;2023-08-30T08:33:04;15.20;99.90
9802;DHT22;4940;50.900;4.672;2023-08-30T08:35:31;15.20;99.90
9802;DHT22;4940;50.900;4.672;2023-08-30T08:38:00;15.30;99.90
9802;DHT22;4940;50.900;4.672;2023-08-30T08:40:27;15.20;99.90
9802;DHT22;4940;50.900;4.672;2023-08-30T08:42:55;15.30;99.90
9802;DHT22;4940;50.900;4.672;2023-08-30T08:50:19;15.50;99.90
9802;DHT22;4940;50.900;4.672;2023-08-30T08:52:47;15.60;99.90
9802;DHT22;4940;50.900;4.672;2023-08-30T08:55:16;15.80;99.90
9802;DHT22;4940;50.900;4.672;2023-08-30T08:57:44;17.40;99.90
9802;DHT22;4940;50.900;4.672;2023-08-30T09:00:13;16.00;99.90
9802;DHT22;4940;50.900;4.672;2023-08-30T09:02:42;16.10;99.90
9802;DHT22;4940;50.900;4.672;2023-08-30T09:05:10;16.10;99.90
9802;DHT22;4940;50.900;4.672;2023-08-30T09:07:38;16.10;99.90
9802;DHT22;4940;50.900;4.672;2023-08-30T09:10:06;16.10;99.90
9802;DHT22;4940;50.900;4.672;2023-08-30T09:12:35;16.10;99.90
9802;DHT22;4940;50.900;4.672;2023-08-30T09:15:03;16.20;99.90
9802;DHT22;4940;50.900;4.672;2023-08-30T09:17:37;16.20;99.90
9802;DHT22;4940;50.900;4.672;2023-08-30T09:20:08;16.30;99.90
9802;DHT22;4940;50.900;4.672;2023-08-30T09:22:36;16.30;99.90
9802;DHT22;4940;50.900;4.672;2023-08-30T09:25:04;16.50;99.90
9802;DHT22;4940;50.900;4.672;2023-08-30T09:27:32;16.70;99.90
9802;DHT22;4940;50.900;4.672;2023-08-30T09:30:03;17.00;99.90
9802;DHT22;4940;50.900;4.672;2023-08-30T09:34:58;17.60;99.90
9802;DHT22;4940;50.900;4.672;2023-08-30T09:37:26;17.90;99.90
9802;DHT22;4940;50.900;4.672;2023-08-30T09:39:53;18.10;99.90
9802;DHT22;4940;50.900;4.672;2023-08-30T09:44:48;18.40;99.90
9802;DHT22;4940;50.900;4.672;2023-08-30T09:47:17;18.40;99.90
9802;DHT22;4940;50.900;4.672;2023-08-30T09:49:45;18.60;99.90
9802;DHT22;4940;50.900;4.672;2023-08-30T09:52:14;18.50;99.90
9802;DHT22;4940;50.900;4.672;2023-08-30T09:54:43;18.50;99.90
9802;DHT22;4940;50.900;4.672;2023-08-30T09:57:12;18.40;99.90
9802;DHT22;4940;50.900;4.672;2023-08-30T09:59:41;18.40;99.90
9802;DHT22;4940;50.900;4.672;2023-08-30T10:02:10;18.40;99.90
9802;DHT22;4940;50.900;4.672;2023-08-30T10:04:39;18.40;99.90
9802;DHT22;4940;50.900;4.672;2023-08-30T10:07:07;18.20;99.90
9802;DHT22;4940;50.900;4.672;2023-08-30T10:09:38;18.10;99.90
9802;DHT22;4940;50.900;4.672;2023-08-30T10:12:06;18.00;99.90
9802;DHT22;4940;50.900;4.672;2023-08-30T10:14:35;17.90;99.90
9802;DHT22;4940;50.900;4.672;2023-08-30T10:17:03;17.90;99.90
9802;DHT22;4940;50.900;4.672;2023-08-30T10:19:31;17.90;99.90
9802;DHT22;4940;50.900;4.672;2023-08-30T10:22:02;17.20;99.90
9802;DHT22;4940;50.900;4.672;2023-08-30T10:24:32;17.70;99.90
9802;DHT22;4940;50.900;4.672;2023-08-30T10:27:03;17.70;99.90
9802;DHT22;4940;50.900;4.672;2023-08-30T10:29:33;17.60;99.90
9802;DHT22;4940;50.900;4.672;2023-08-30T10:32:04;17.60;99.90
9802;DHT22;4940;50.900;4.672;2023-08-30T10:34:34;17.40;99.90
9802;DHT22;4940;50.900;4.672;2023-08-30T10:37:06;17.60;99.90
9802;DHT22;4940;50.900;4.672;2023-08-30T10:39:35;17.60;99.90
9802;DHT22;4940;50.900;4.672;2023-08-30T10:42:10;17.60;99.90
9802;DHT22;4940;50.900;4.672;2023-08-30T10:44:56;17.50;99.90
9802;DHT22;4940;50.900;4.672;2023-08-30T10:47:24;17.60;99.90
9802;DHT22;4940;50.900;4.672;2023-08-30T10:49:54;17.60;99.90
9802;DHT22;4940;50.900;4.672;2023-08-30T10:52:24;17.60;99.90
9802;DHT22;4940;50.900;4.672;2023-08-30T10:54:51;17.70;99.90
9802;DHT22;4940;50.900;4.672;2023-08-30T10:57:20;17.70;99.90
9802;DHT22;4940;50.900;4.672;2023-08-30T11:00:07;17.80;99.90
9802;DHT22;4940;50.900;4.672;2023-08-30T11:02:35;18.00;99.90
9802;DHT22;4940;50.900;4.672;2023-08-30T11:05:06;18.00;99.90
9802;DHT22;4940;50.900;4.672;2023-08-30T11:07:35;18.10;99.90
9802;DHT22;4940;50.900;4.672;2023-08-30T11:10:04;18.20;99.90
9802;DHT22;4940;50.900;4.672;2023-08-30T11:12:32;18.30;99.90
9802;DHT22;4940;50.900;4.672;2023-08-30T11:15:00;18.40;99.90
9802;DHT22;4940;50.900;4.672;2023-08-30T11:17:28;18.40;99.90
9802;DHT22;4940;50.900;4.672;2023-08-30T11:20:04;17.50;99.90
9802;DHT22;4940;50.900;4.672;2023-08-30T11:22:32;18.50;99.90
9802;DHT22;4940;50.900;4.672;2023-08-30T11:25:01;18.60;99.90
9802;DHT22;4940;50.900;4.672;2023-08-30T11:27:30;18.60;99.90
9802;DHT22;4940;50.900;4.672;2023-08-30T11:29:59;18.60;99.90
9802;DHT22;4940;50.900;4.672;2023-08-30T11:32:27;19.70;99.90
9802;DHT22;4940;50.900;4.672;2023-08-30T11:34:57;19.00;99.90
9802;DHT22;4940;50.900;4.672;2023-08-30T11:37:27;18.80;99.90
9802;DHT22;4940;50.900;4.672;2023-08-30T11:39:55;19.00;99.90
9802;DHT22;4940;50.900;4.672;2023-08-30T11:42:25;19.10;99.90
9802;DHT22;4940;50.900;4.672;2023-08-30T11:44:53;19.30;99.90
9802;DHT22;4940;50.900;4.672;2023-08-30T11:47:22;19.50;99.90
9802;DHT22;4940;50.900;4.672;2023-08-30T11:49:50;19.70;99.90
9802;DHT22;4940;50.900;4.672;2023-08-30T11:52:19;19.60;99.90
9802;DHT22;4940;50.900;4.672;2023-08-30T11:54:47;19.70;99.90
9802;DHT22;4940;50.900;4.672;2023-08-30T11:57:15;19.80;99.90
9802;DHT22;4940;50.900;4.672;2023-08-30T11:59:43;19.80;99.90
9802;DHT22;4940;50.900;4.672;2023-08-30T12:02:12;19.80;99.90
9802;DHT22;4940;50.900;4.672;2023-08-30T12:07:07;19.60;99.90
9802;DHT22;4940;50.900;4.672;2023-08-30T12:09:34;19.90;99.90
9802;DHT22;4940;50.900;4.672;2023-08-30T12:12:06;19.70;99.90
9802;DHT22;4940;50.900;4.672;2023-08-30T12:14:34;19.80;99.90
9802;DHT22;4940;50.900;4.672;2023-08-30T12:17:02;19.90;99.90
9802;DHT22;4940;50.900;4.672;2023-08-30T12:19:31;19.80;99.90
9802;DHT22;4940;50.900;4.672;2023-08-30T12:22:03;19.70;99.90
9802;DHT22;4940;50.900;4.672;2023-08-30T12:24:41;19.80;99.90
9802;DHT22;4940;50.900;4.672;2023-08-30T12:29:36;19.80;99.90
9802;DHT22;4940;50.900;4.672;2023-08-30T12:32:05;19.90;99.90
9802;DHT22;4940;50.900;4.672;2023-08-30T12:44:24;20.30;99.90
9802;DHT22;4940;50.900;4.672;2023-08-30T12:46:51;20.30;99.90
9802;DHT22;4940;50.900;4.672;2023-08-30T12:49:20;20.50;99.90
9802;DHT22;4940;50.900;4.672;2023-08-30T12:51:47;20.60;99.90
9802;DHT22;4940;50.900;4.672;2023-08-30T12:54:14;20.70;99.90
9802;DHT22;4940;50.900;4.672;2023-08-30T12:56:42;20.80;99.90
9802;DHT22;4940;50.900;4.672;2023-08-30T13:01:36;20.60;99.90
9802;DHT22;4940;50.900;4.672;2023-08-30T13:04:04;20.90;99.90
9802;DHT22;4940;50.900;4.672;2023-08-30T13:06:32;20.90;99.90
9802;DHT22;4940;50.900;4.672;2023-08-30T13:13:58;20.80;99.90
9802;DHT22;4940;50.900;4.672;2023-08-30T13:16:25;20.90;99.90
9802;DHT22;4940;50.900;4.672;2023-08-30T13:23:49;20.50;99.90
9802;DHT22;4940;50.900;4.672;2023-08-30T13:36:06;20.80;99.90
9802;DHT22;4940;50.900;4.672;2023-08-30T13:41:02;20.80;99.90
9802;DHT22;4940;50.900;4.672;2023-08-30T13:43:30;20.80;99.90
9802;DHT22;4940;50.900;4.672;2023-08-30T13:45:58;20.80;99.90
9802;DHT22;4940;50.900;4.672;2023-08-30T13:50:53;20.80;99.90
9802;DHT22;4940;50.900;4.672;2023-08-30T13:55:48;20.70;99.90
9802;DHT22;4940;50.900;4.672;2023-08-30T13:58:16;20.80;99.90
9802;DHT22;4940;50.900;4.672;2023-08-30T14:00:44;20.80;99.90
9802;DHT22;4940;50.900;4.672;2023-08-30T14:03:11;20.80;99.90
9802;DHT22;4940;50.900;4.672;2023-08-30T14:10:34;20.70;99.90
9802;DHT22;4940;50.900;4.672;2023-08-30T14:13:01;19.90;99.90
9802;DHT22;4940;50.900;4.672;2023-08-30T14:15:30;20.70;99.90
9802;DHT22;4940;50.900;4.672;2023-08-30T14:22:52;20.70;99.90
9802;DHT22;4940;50.900;4.672;2023-08-30T14:30:15;20.50;99.90
9802;DHT22;4940;50.900;4.672;2023-08-30T14:32:44;20.50;99.90
9802;DHT22;4940;50.900;4.672;2023-08-30T14:37:38;20.40;99.90
9802;DHT22;4940;50.900;4.672;2023-08-30T14:40:07;20.30;99.90
9802;DHT22;4940;50.900;4.672;2023-08-30T14:42:35;20.30;99.90
9802;DHT22;4940;50.900;4.672;2023-08-30T14:45:04;20.20;99.90
9802;DHT22;4940;50.900;4.672;2023-08-30T14:47:32;20.40;99.90
9802;DHT22;4940;50.900;4.672;2023-08-30T14:50:01;20.20;99.90
9802;DHT22;4940;50.900;4.672;2023-08-30T14:59:53;20.00;99.90
9802;DHT22;4940;50.900;4.672;2023-08-30T15:02:21;20.00;99.90
9802;DHT22;4940;50.900;4.672;2023-08-30T15:07:17;20.10;99.90
9802;DHT22;4940;50.900;4.672;2023-08-30T15:17:08;20.00;99.90
9802;DHT22;4940;50.900;4.672;2023-08-30T15:22:03;20.00;99.90
9802;DHT22;4940;50.900;4.672;2023-08-30T15:24:32;20.20;99.90
9802;DHT22;4940;50.900;4.672;2023-08-30T15:26:59;20.00;99.90
9802;DHT22;4940;50.900;4.672;2023-08-30T15:31:54;20.00;99.90
9802;DHT22;4940;50.900;4.672;2023-08-30T15:39:16;20.00;99.90
9802;DHT22;4940;50.900;4.672;2023-08-30T15:41:45;20.00;99.90
9802;DHT22;4940;50.900;4.672;2023-08-30T15:44:14;20.00;99.90
9802;DHT22;4940;50.900;4.672;2023-08-30T15:46:42;19.80;99.90
9802;DHT22;4940;50.900;4.672;2023-08-30T15:49:09;20.00;99.90
9802;DHT22;4940;50.900;4.672;2023-08-30T15:51:36;19.80;99.90
9802;DHT22;4940;50.900;4.672;2023-08-30T15:54:04;19.80;99.90
9802;DHT22;4940;50.900;4.672;2023-08-30T15:59:00;19.80;99.90
9802;DHT22;4940;50.900;4.672;2023-08-30T16:08:49;19.90;99.90
9802;DHT22;4940;50.900;4.672;2023-08-30T16:16:13;19.90;99.90
9802;DHT22;4940;50.900;4.672;2023-08-30T16:28:32;19.80;99.90
9802;DHT22;4940;50.900;4.672;2023-08-30T16:31:04;19.70;99.90
9802;DHT22;4940;50.900;4.672;2023-08-30T16:33:33;19.70;99.90
9802;DHT22;4940;50.900;4.672;2023-08-30T16:36:01;19.60;99.90
9802;DHT22;4940;50.900;4.672;2023-08-30T16:38:28;19.50;99.90
9802;DHT22;4940;50.900;4.672;2023-08-30T16:40:56;19.50;99.90
9802;DHT22;4940;50.900;4.672;2023-08-30T16:43:28;19.40;99.90
9802;DHT22;4940;50.900;4.672;2023-08-30T16:48:23;19.40;99.90
9802;DHT22;4940;50.900;4.672;2023-08-30T16:50:52;19.30;99.90
9802;DHT22;4940;50.900;4.672;2023-08-30T16:53:20;19.40;99.90
9802;DHT22;4940;50.900;4.672;2023-08-30T16:58:15;19.20;99.90
9802;DHT22;4940;50.900;4.672;2023-08-30T17:00:42;19.20;99.90
9802;DHT22;4940;50.900;4.672;2023-08-30T17:03:10;19.20;99.90
9802;DHT22;4940;50.900;4.672;2023-08-30T17:05:40;19.10;99.90
9802;DHT22;4940;50.900;4.672;2023-08-30T17:08:08;19.20;99.90
9802;DHT22;4940;50.900;4.672;2023-08-30T17:10:36;19.20;99.90
9802;DHT22;4940;50.900;4.672;2023-08-30T17:13:03;19.10;99.90
9802;DHT22;4940;50.900;4.672;2023-08-30T17:15:31;19.20;99.90
9802;DHT22;4940;50.900;4.672;2023-08-30T17:17:58;19.20;99.90
9802;DHT22;4940;50.900;4.672;2023-08-30T17:25:21;19.20;99.90
9802;DHT22;4940;50.900;4.672;2023-08-30T17:27:49;19.10;99.90
9802;DHT22;4940;50.900;4.672;2023-08-30T17:30:16;19.00;99.90
9802;DHT22;4940;50.900;4.672;2023-08-30T17:32:45;19.00;99.90
9802;DHT22;4940;50.900;4.672;2023-08-30T17:37:40;18.80;99.90
9802;DHT22;4940;50.900;4.672;2023-08-30T17:40:08;18.70;99.90
9802;DHT22;4940;50.900;4.672;2023-08-30T17:42:38;18.70;99.90
9802;DHT22;4940;50.900;4.672;2023-08-30T17:45:05;18.60;99.90
9802;DHT22;4940;50.900;4.672;2023-08-30T17:50:00;18.50;99.90
9802;DHT22;4940;50.900;4.672;2023-08-30T17:54:56;18.40;99.90
9802;DHT22;4940;50.900;4.672;2023-08-30T17:57:24;18.30;99.90
9802;DHT22;4940;50.900;4.672;2023-08-30T17:59:53;18.30;99.90
9802;DHT22;4940;50.900;4.672;2023-08-30T18:02:21;18.20;99.90
9802;DHT22;4940;50.900;4.672;2023-08-30T18:04:48;18.20;99.90
9802;DHT22;4940;50.900;4.672;2023-08-30T18:12:10;18.00;99.90
9802;DHT22;4940;50.900;4.672;2023-08-30T18:14:38;17.90;99.90
9802;DHT22;4940;50.900;4.672;2023-08-30T18:17:06;17.90;99.90
9802;DHT22;4940;50.900;4.672;2023-08-30T18:19:34;17.80;99.90
9802;DHT22;4940;50.900;4.672;2023-08-30T18:26:56;17.50;99.90
9802;DHT22;4940;50.900;4.672;2023-08-30T18:31:54;17.30;99.90
9802;DHT22;4940;50.900;4.672;2023-08-30T18:34:24;17.30;99.90
9802;DHT22;4940;50.900;4.672;2023-08-30T18:36:52;17.20;99.90
9802;DHT22;4940;50.900;4.672;2023-08-30T18:44:17;16.90;99.90
9802;DHT22;4940;50.900;4.672;2023-08-30T18:49:12;16.60;99.90
9802;DHT22;4940;50.900;4.672;2023-08-30T18:51:41;16.70;99.90
9802;DHT22;4940;50.900;4.672;2023-08-30T18:56:37;16.60;99.90
9802;DHT22;4940;50.900;4.672;2023-08-30T18:59:05;16.50;99.90
9802;DHT22;4940;50.900;4.672;2023-08-30T19:03:59;16.50;99.90
9802;DHT22;4940;50.900;4.672;2023-08-30T19:06:27;16.50;99.90
9802;DHT22;4940;50.900;4.672;2023-08-30T19:08:55;16.40;99.90
9802;DHT22;4940;50.900;4.672;2023-08-30T19:11:22;16.40;99.90
9802;DHT22;4940;50.900;4.672;2023-08-30T19:13:50;16.40;99.90
9802;DHT22;4940;50.900;4.672;2023-08-30T19:16:18;16.40;99.90
9802;DHT22;4940;50.900;4.672;2023-08-30T19:18:47;16.40;99.90
9802;DHT22;4940;50.900;4.672;2023-08-30T19:23:45;16.40;99.90
9802;DHT22;4940;50.900;4.672;2023-08-30T19:26:13;16.40;99.90
9802;DHT22;4940;50.900;4.672;2023-08-30T19:28:42;16.50;99.90
9802;DHT22;4940;50.900;4.672;2023-08-30T19:33:36;16.40;99.90
9802;DHT22;4940;50.900;4.672;2023-08-30T19:38:31;16.40;99.90
9802;DHT22;4940;50.900;4.672;2023-08-30T19:40:59;16.40;99.90
9802;DHT22;4940;50.900;4.672;2023-08-30T19:43:27;16.40;99.90
9802;DHT22;4940;50.900;4.672;2023-08-30T19:46:02;16.40;99.90
9802;DHT22;4940;50.900;4.672;2023-08-30T19:50:57;16.40;99.90
9802;DHT22;4940;50.900;4.672;2023-08-30T19:53:24;16.40;99.90
9802;DHT22;4940;50.900;4.672;2023-08-30T19:55:52;16.40;99.90
9802;DHT22;4940;50.900;4.672;2023-08-30T19:58:20;16.50;99.90
9802;DHT22;4940;50.900;4.672;2023-08-30T20:00:50;16.50;99.90
9802;DHT22;4940;50.900;4.672;2023-08-30T20:03:18;16.50;99.90
9802;DHT22;4940;50.900;4.672;2023-08-30T20:05:50;16.50;99.90
9802;DHT22;4940;50.900;4.672;2023-08-30T20:08:18;16.60;99.90
9802;DHT22;4940;50.900;4.672;2023-08-30T20:10:46;16.50;99.90
9802;DHT22;4940;50.900;4.672;2023-08-30T20:15:41;16.30;99.90
9802;DHT22;4940;50.900;4.672;2023-08-30T20:18:10;16.20;99.90
9802;DHT22;4940;50.900;4.672;2023-08-30T20:20:38;16.10;99.90
9802;DHT22;4940;50.900;4.672;2023-08-30T20:23:06;15.90;99.90
9802;DHT22;4940;50.900;4.672;2023-08-30T20:25:33;15.90;99.90
9802;DHT22;4940;50.900;4.672;2023-08-30T20:28:02;15.70;99.90
9802;DHT22;4940;50.900;4.672;2023-08-30T20:30:29;15.70;99.90
9802;DHT22;4940;50.900;4.672;2023-08-30T20:32:57;15.60;99.90
9802;DHT22;4940;50.900;4.672;2023-08-30T20:35:25;15.60;99.90
9802;DHT22;4940;50.900;4.672;2023-08-30T20:37:53;15.50;99.90
9802;DHT22;4940;50.900;4.672;2023-08-30T20:40:21;15.50;99.90
9802;DHT22;4940;50.900;4.672;2023-08-30T20:47:44;15.40;99.90
9802;DHT22;4940;50.900;4.672;2023-08-30T20:50:11;15.40;99.90
9802;DHT22;4940;50.900;4.672;2023-08-30T20:52:41;15.30;99.90
9802;DHT22;4940;50.900;4.672;2023-08-30T20:55:09;15.20;99.90
9802;DHT22;4940;50.900;4.672;2023-08-30T20:57:36;15.20;99.90
9802;DHT22;4940;50.900;4.672;2023-08-30T21:00:04;15.20;99.90
9802;DHT22;4940;50.900;4.672;2023-08-30T21:02:32;15.10;99.90
9802;DHT22;4940;50.900;4.672;2023-08-30T21:05:02;15.00;99.90
9802;DHT22;4940;50.900;4.672;2023-08-30T21:09:58;14.80;99.90
9802;DHT22;4940;50.900;4.672;2023-08-30T21:12:26;14.80;99.90
9802;DHT22;4940;50.900;4.672;2023-08-30T21:17:21;14.70;99.90
9802;DHT22;4940;50.900;4.672;2023-08-30T21:19:49;14.70;99.90
9802;DHT22;4940;50.900;4.672;2023-08-30T21:22:16;14.60;99.90
9802;DHT22;4940;50.900;4.672;2023-08-30T21:24:43;14.60;99.90
9802;DHT22;4940;50.900;4.672;2023-08-30T21:27:12;14.60;99.90
9802;DHT22;4940;50.900;4.672;2023-08-30T21:32:07;14.50;99.90
9802;DHT22;4940;50.900;4.672;2023-08-30T21:34:37;14.50;99.90
9802;DHT22;4940;50.900;4.672;2023-08-30T21:42:22;14.50;99.90
9802;DHT22;4940;50.900;4.672;2023-08-30T21:50:19;14.40;99.90
9802;DHT22;4940;50.900;4.672;2023-08-30T21:52:46;14.40;99.90
9802;DHT22;4940;50.900;4.672;2023-08-30T21:55:13;14.30;99.90
9802;DHT22;4940;50.900;4.672;2023-08-30T21:57:51;14.30;99.90
9802;DHT22;4940;50.900;4.672;2023-08-30T22:00:19;14.20;99.90
9802;DHT22;4940;50.900;4.672;2023-08-30T22:02:46;14.20;99.90
9802;DHT22;4940;50.900;4.672;2023-08-30T22:05:14;14.10;99.90
9802;DHT22;4940;50.900;4.672;2023-08-30T22:07:42;14.10;99.90
9802;DHT22;4940;50.900;4.672;2023-08-30T22:10:10;14.10;99.90